Montevallo, AL

1:08 PM CST on March 05, 2015 (GMT -0600)
Shelby County | Change Station
CLOSE
Current Station
Airport
Location: Alabaster,
Elevation: 584 ft
Nearby Weather Stations
Active Advisory: Freezing Rain Advisory Active Notice: Local Storm Report

Elev 584 ft 33.18 °N, 86.78 °W | Updated 15 minutes ago

Overcast
Overcast
34 °F
Feels Like 25 °F
N
14
Wind Variable Wind from NNW
Gusts 22 mph

Today
High -- | Low -- °F
--% Chance of Precip.
Yesterday
High -- | Low -- °F
Precip. -- in
6:10 AM 5:47 PM
Full, 100% visible
Pressure 30.27 in
Visibility 6.0 miles
Clouds Overcast 1100 ft
Windchill 25 °F
Dew Point 30 °F
Humidity 85%
Rainfall 0.13 in
Snow Depth Not available.
UV 2 out of 12
Pollen 1.00 out of 12
Air Quality Not available.
Flu Activity Not available.
METAR KEET 051853Z AUTO 33012G19KT 6SM UP BR OVC011 01/M01 A3026 RMK AO2 RAB37E50UPB50 SLP248 P0000 T00111011 $

More Conditions Fewer Conditions

Pressure 30.27 in
Visibility 6.0 miles
Clouds Overcast 1100 ft
Windchill 25 °F
Dew Point 30 °F
Humidity 85%
Rainfall 0.13 in
Snow Depth Not available.
UV 2 out of 12
Pollen 1.00 out of 12
Air Quality Not available.
Flu Activity Not available.
METAR KEET 051853Z AUTO 33012G19KT 6SM UP BR OVC011 01/M01 A3026 RMK AO2 RAB37E50UPB50 SLP248 P0000 T00111011 $

More Conditions Fewer Conditions

10-Day Weather Forecast

Almanac

Astronomy

Mar. 05, 2015 Rise Set
Actual Time
Civil Twilight
Nautical Twilight
Astronomical Twilight
Moon
Length of Visible Light
Length of Day
Tomorrow will be .
, % of the Moon is Illuminated

Today's Extremes

State Highs State Lows

Community

WunderPhotos

Upload Photos

1,802,914 photos uploaded!

WunderBlogs® & News

Nearby

Air Quality

  Air Quality AQ Index Pollutant
Not available.

Snow Depth

Station Depth Elevation

Earthquake Activity

City Distance Mag. Time & Date
Minimum magnitude displayed is 2.5.

Coastal Water Temperatures

Place Temperature

Nearby Weather Stations

Freezing Rain Advisory
Statement as of 7:17 AM CST on March 05, 2015

... Freezing Rain Advisory remains in effect until 3 PM CST this
afternoon...

* timing... through 3 PM this afternoon.

* Location... areas roughly along and north of a Livingston... to
Alabaster... to Pell City... to Anniston line.

* Accumulations... ice accumulation of less than one tenth of an
inch is possible.

Precautionary/preparedness actions...

A Freezing Rain Advisory means that periods of freezing rain or
freezing drizzle will cause travel difficulties. Be prepared for
slippery roads. Slow down and use caution while driving. Be
prepared for an upgrade to a Winter Storm Warning if needed.